SBCT/CWB METAR and TAF weather

Enter ICAO airport designator
Station Type Date Time Source
SBCT METAR 2019/12/10 19:00 UTC NOAA

SBCT 101900Z 12003KT 040V190 9999 BKN030 25/19 Q1014


Station Type Date Time Source
SBCT Decoded METAR 2019/12/10 19:00 UTC NOAA

Curitiba Aeroporto , Brazil (SBCT) 25-31S 049-10W 908M
Dec 10, 2019 - 02:00 PM EST / 2019.12.10 1900 UTC
Wind: from the ESE (120 degrees) at 3 MPH (3 KT) (direction variable):0
Visibility: greater than 7 mile(s):0
Sky conditions: mostly cloudy
Temperature: 77 F (25 C)
Dew Point: 66 F (19 C)
Relative Humidity: 69%
Pressure (altimeter): 29.94 in. Hg (1014 hPa)
ob: SBCT 101900Z 12003KT 040V190 9999 BKN030 25/19 Q1014
cycle: 19

Station Type Date Time Source
SBCT TAF 2019/12/10 18:54 UTC NOAA

TAF SBCT 101530Z 1018/1118 35007KT 9999 BKN025 TN17/1108Z TX27/1117Z
BECMG 1021/1023 10007KT BKN007 PROB40
TEMPO 1106/1110 4000 BR OVC005
BECMG 1110/1112 SCT015
RMK PCO

Example: see airport list